sensor_id;sensor_type;location;lat;lon;timestamp;temperature;humidity
13682;DHT22;6913;49.892;7.936;2022-12-18T00:02:00;-6.00;99.90
13682;DHT22;6913;49.892;7.936;2022-12-18T00:04:27;-5.90;99.90
13682;DHT22;6913;49.892;7.936;2022-12-18T00:06:54;-5.90;99.90
13682;DHT22;6913;49.892;7.936;2022-12-18T00:09:21;-5.80;99.90
13682;DHT22;6913;49.892;7.936;2022-12-18T00:11:48;-6.00;99.90
13682;DHT22;6913;49.892;7.936;2022-12-18T00:14:15;-6.10;99.90
13682;DHT22;6913;49.892;7.936;2022-12-18T00:16:44;-6.20;99.90
13682;DHT22;6913;49.892;7.936;2022-12-18T00:19:14;-6.30;99.90
13682;DHT22;6913;49.892;7.936;2022-12-18T00:21:41;-6.30;99.90
13682;DHT22;6913;49.892;7.936;2022-12-18T00:24:09;-6.20;99.90
13682;DHT22;6913;49.892;7.936;2022-12-18T00:26:37;-6.10;99.90
13682;DHT22;6913;49.892;7.936;2022-12-18T00:29:07;-6.10;99.90
13682;DHT22;6913;49.892;7.936;2022-12-18T00:31:34;-6.00;99.90
13682;DHT22;6913;49.892;7.936;2022-12-18T00:34:02;-6.10;99.90
13682;DHT22;6913;49.892;7.936;2022-12-18T00:36:31;-6.30;99.90
13682;DHT22;6913;49.892;7.936;2022-12-18T00:38:59;-6.30;99.90
13682;DHT22;6913;49.892;7.936;2022-12-18T00:41:27;-6.30;99.90
13682;DHT22;6913;49.892;7.936;2022-12-18T00:44:14;-6.40;99.90
13682;DHT22;6913;49.892;7.936;2022-12-18T00:46:43;-6.40;99.90
13682;DHT22;6913;49.892;7.936;2022-12-18T00:49:11;-6.50;99.90
13682;DHT22;6913;49.892;7.936;2022-12-18T00:51:39;-6.60;99.90
13682;DHT22;6913;49.892;7.936;2022-12-18T00:54:06;-6.60;99.90
13682;DHT22;6913;49.892;7.936;2022-12-18T00:56:34;-6.40;99.90
13682;DHT22;6913;49.892;7.936;2022-12-18T00:59:01;-6.40;99.90
13682;DHT22;6913;49.892;7.936;2022-12-18T01:01:28;-6.50;99.90
13682;DHT22;6913;49.892;7.936;2022-12-18T01:03:58;-6.50;99.90
13682;DHT22;6913;49.892;7.936;2022-12-18T01:06:25;-6.50;99.90
13682;DHT22;6913;49.892;7.936;2022-12-18T01:08:54;-6.50;99.90
13682;DHT22;6913;49.892;7.936;2022-12-18T01:11:21;-6.50;99.90
13682;DHT22;6913;49.892;7.936;2022-12-18T01:13:48;-6.50;99.90
13682;DHT22;6913;49.892;7.936;2022-12-18T01:16:16;-6.40;99.90
13682;DHT22;6913;49.892;7.936;2022-12-18T01:18:43;-6.20;99.90
13682;DHT22;6913;49.892;7.936;2022-12-18T01:21:12;-6.10;99.90
13682;DHT22;6913;49.892;7.936;2022-12-18T01:23:39;-6.00;99.90
13682;DHT22;6913;49.892;7.936;2022-12-18T01:26:09;-6.00;99.90
13682;DHT22;6913;49.892;7.936;2022-12-18T01:28:35;-6.20;99.90
13682;DHT22;6913;49.892;7.936;2022-12-18T01:31:10;-6.20;99.90
13682;DHT22;6913;49.892;7.936;2022-12-18T01:33:37;-6.30;99.90
13682;DHT22;6913;49.892;7.936;2022-12-18T01:36:05;-6.30;99.90
13682;DHT22;6913;49.892;7.936;2022-12-18T01:38:31;-6.30;99.90
13682;DHT22;6913;49.892;7.936;2022-12-18T01:40:58;-6.40;99.90
13682;DHT22;6913;49.892;7.936;2022-12-18T01:43:42;-6.40;99.90
13682;DHT22;6913;49.892;7.936;2022-12-18T01:46:09;-6.30;99.90
13682;DHT22;6913;49.892;7.936;2022-12-18T01:48:37;-6.30;99.90
13682;DHT22;6913;49.892;7.936;2022-12-18T01:51:06;-6.30;99.90
13682;DHT22;6913;49.892;7.936;2022-12-18T01:53:34;-6.30;99.90
13682;DHT22;6913;49.892;7.936;2022-12-18T01:56:02;-6.40;99.90
13682;DHT22;6913;49.892;7.936;2022-12-18T01:58:35;-6.40;99.90
13682;DHT22;6913;49.892;7.936;2022-12-18T02:01:05;-6.80;99.90
13682;DHT22;6913;49.892;7.936;2022-12-18T02:03:32;-7.10;99.90
13682;DHT22;6913;49.892;7.936;2022-12-18T02:06:04;-6.10;99.90
13682;DHT22;6913;49.892;7.936;2022-12-18T02:08:39;-7.20;99.90
13682;DHT22;6913;49.892;7.936;2022-12-18T02:11:15;-7.10;99.90
13682;DHT22;6913;49.892;7.936;2022-12-18T02:13:50;-7.00;99.90
13682;DHT22;6913;49.892;7.936;2022-12-18T02:16:25;-8.50;99.90
13682;DHT22;6913;49.892;7.936;2022-12-18T02:18:57;-6.70;99.90
13682;DHT22;6913;49.892;7.936;2022-12-18T02:21:32;-6.60;99.90
13682;DHT22;6913;49.892;7.936;2022-12-18T02:24:11;-6.50;99.90
13682;DHT22;6913;49.892;7.936;2022-12-18T02:26:45;-6.50;99.90
13682;DHT22;6913;49.892;7.936;2022-12-18T02:29:15;-6.50;99.90
13682;DHT22;6913;49.892;7.936;2022-12-18T02:31:48;-6.40;99.90
13682;DHT22;6913;49.892;7.936;2022-12-18T02:34:16;-6.40;99.90
13682;DHT22;6913;49.892;7.936;2022-12-18T02:36:45;-6.50;99.90
13682;DHT22;6913;49.892;7.936;2022-12-18T02:39:13;-6.50;99.90
13682;DHT22;6913;49.892;7.936;2022-12-18T02:41:43;-5.80;99.90
13682;DHT22;6913;49.892;7.936;2022-12-18T02:44:12;-6.80;99.90
13682;DHT22;6913;49.892;7.936;2022-12-18T02:46:41;-6.90;99.90
13682;DHT22;6913;49.892;7.936;2022-12-18T02:49:21;-6.80;99.90
13682;DHT22;6913;49.892;7.936;2022-12-18T02:51:53;-6.90;99.90
13682;DHT22;6913;49.892;7.936;2022-12-18T02:54:30;-6.90;99.90
13682;DHT22;6913;49.892;7.936;2022-12-18T02:57:06;-7.00;99.90
13682;DHT22;6913;49.892;7.936;2022-12-18T02:59:39;-7.00;99.90
13682;DHT22;6913;49.892;7.936;2022-12-18T03:02:17;-7.50;99.90
13682;DHT22;6913;49.892;7.936;2022-12-18T03:04:49;-7.70;99.90
13682;DHT22;6913;49.892;7.936;2022-12-18T03:07:34;-7.70;99.90
13682;DHT22;6913;49.892;7.936;2022-12-18T03:10:05;-7.60;99.90
13682;DHT22;6913;49.892;7.936;2022-12-18T03:12:36;-8.00;99.90
13682;DHT22;6913;49.892;7.936;2022-12-18T03:15:08;-8.20;99.90
13682;DHT22;6913;49.892;7.936;2022-12-18T03:17:39;-8.20;99.90
13682;DHT22;6913;49.892;7.936;2022-12-18T03:20:11;-8.10;99.90
13682;DHT22;6913;49.892;7.936;2022-12-18T03:22:40;-8.10;99.90
13682;DHT22;6913;49.892;7.936;2022-12-18T03:25:09;-7.90;99.90
13682;DHT22;6913;49.892;7.936;2022-12-18T03:27:43;-7.90;99.90
13682;DHT22;6913;49.892;7.936;2022-12-18T03:30:13;-8.00;99.90
13682;DHT22;6913;49.892;7.936;2022-12-18T03:32:44;-8.00;99.90
13682;DHT22;6913;49.892;7.936;2022-12-18T03:35:15;-8.00;99.90
13682;DHT22;6913;49.892;7.936;2022-12-18T03:37:43;-7.80;99.90
13682;DHT22;6913;49.892;7.936;2022-12-18T03:40:10;-7.80;99.90
13682;DHT22;6913;49.892;7.936;2022-12-18T03:42:46;-7.60;99.90
13682;DHT22;6913;49.892;7.936;2022-12-18T03:45:19;-7.50;99.90
13682;DHT22;6913;49.892;7.936;2022-12-18T03:47:57;-7.50;99.90
13682;DHT22;6913;49.892;7.936;2022-12-18T03:50:33;-7.70;99.90
13682;DHT22;6913;49.892;7.936;2022-12-18T03:53:11;-7.90;99.90
13682;DHT22;6913;49.892;7.936;2022-12-18T03:55:43;-7.80;99.90
13682;DHT22;6913;49.892;7.936;2022-12-18T03:58:14;-8.00;99.90
13682;DHT22;6913;49.892;7.936;2022-12-18T04:00:43;-8.00;99.90
13682;DHT22;6913;49.892;7.936;2022-12-18T04:03:11;-8.10;99.90
13682;DHT22;6913;49.892;7.936;2022-12-18T04:05:39;-8.00;99.90
13682;DHT22;6913;49.892;7.936;2022-12-18T04:08:07;-7.90;99.90
13682;DHT22;6913;49.892;7.936;2022-12-18T04:10:34;-7.80;99.90
13682;DHT22;6913;49.892;7.936;2022-12-18T04:13:02;-7.80;99.90
13682;DHT22;6913;49.892;7.936;2022-12-18T04:15:32;-7.90;99.90
13682;DHT22;6913;49.892;7.936;2022-12-18T04:17:59;-7.90;99.90
13682;DHT22;6913;49.892;7.936;2022-12-18T04:20:27;-8.00;99.90
13682;DHT22;6913;49.892;7.936;2022-12-18T04:22:54;-8.10;99.90
13682;DHT22;6913;49.892;7.936;2022-12-18T04:25:20;-8.20;99.90
13682;DHT22;6913;49.892;7.936;2022-12-18T04:27:47;-8.00;99.90
13682;DHT22;6913;49.892;7.936;2022-12-18T04:30:14;-8.20;99.90
13682;DHT22;6913;49.892;7.936;2022-12-18T04:32:42;-8.10;99.90
13682;DHT22;6913;49.892;7.936;2022-12-18T04:35:09;-8.10;99.90
13682;DHT22;6913;49.892;7.936;2022-12-18T04:37:37;-7.90;99.90
13682;DHT22;6913;49.892;7.936;2022-12-18T04:40:05;-7.70;99.90
13682;DHT22;6913;49.892;7.936;2022-12-18T04:42:32;-7.50;99.90
13682;DHT22;6913;49.892;7.936;2022-12-18T04:44:58;-7.60;99.90
13682;DHT22;6913;49.892;7.936;2022-12-18T04:47:25;-7.90;99.90
13682;DHT22;6913;49.892;7.936;2022-12-18T04:49:53;-7.70;99.90
13682;DHT22;6913;49.892;7.936;2022-12-18T04:52:20;-7.70;99.90
13682;DHT22;6913;49.892;7.936;2022-12-18T04:54:47;-7.70;99.90
13682;DHT22;6913;49.892;7.936;2022-12-18T04:57:14;-8.00;99.90
13682;DHT22;6913;49.892;7.936;2022-12-18T04:59:40;-8.20;99.90
13682;DHT22;6913;49.892;7.936;2022-12-18T05:02:07;-8.20;99.90
13682;DHT22;6913;49.892;7.936;2022-12-18T05:04:34;-8.30;99.90
13682;DHT22;6913;49.892;7.936;2022-12-18T05:07:02;-8.30;99.90
13682;DHT22;6913;49.892;7.936;2022-12-18T05:09:29;-8.30;99.90
13682;DHT22;6913;49.892;7.936;2022-12-18T05:11:56;-8.40;99.90
13682;DHT22;6913;49.892;7.936;2022-12-18T05:14:22;-8.40;99.90
13682;DHT22;6913;49.892;7.936;2022-12-18T05:16:49;-8.40;99.90
13682;DHT22;6913;49.892;7.936;2022-12-18T05:19:16;-8.50;99.90
13682;DHT22;6913;49.892;7.936;2022-12-18T05:21:43;-8.50;99.90
13682;DHT22;6913;49.892;7.936;2022-12-18T05:24:11;-8.50;99.90
13682;DHT22;6913;49.892;7.936;2022-12-18T05:26:38;-8.40;99.90
13682;DHT22;6913;49.892;7.936;2022-12-18T05:29:05;-8.20;99.90
13682;DHT22;6913;49.892;7.936;2022-12-18T05:31:32;-8.10;99.90
13682;DHT22;6913;49.892;7.936;2022-12-18T05:33:58;-7.90;99.90
13682;DHT22;6913;49.892;7.936;2022-12-18T05:36:25;-8.20;99.90
13682;DHT22;6913;49.892;7.936;2022-12-18T05:38:52;-8.40;99.90
13682;DHT22;6913;49.892;7.936;2022-12-18T05:41:20;-8.40;99.90
13682;DHT22;6913;49.892;7.936;2022-12-18T05:43:47;-8.30;99.90
13682;DHT22;6913;49.892;7.936;2022-12-18T05:46:16;-8.20;99.90
13682;DHT22;6913;49.892;7.936;2022-12-18T05:48:44;-8.20;99.90
13682;DHT22;6913;49.892;7.936;2022-12-18T05:51:17;-8.30;99.90
13682;DHT22;6913;49.892;7.936;2022-12-18T05:53:44;-8.40;99.90
13682;DHT22;6913;49.892;7.936;2022-12-18T05:56:13;-8.20;99.90
13682;DHT22;6913;49.892;7.936;2022-12-18T05:58:42;-8.40;99.90
13682;DHT22;6913;49.892;7.936;2022-12-18T06:01:11;-8.30;99.90
13682;DHT22;6913;49.892;7.936;2022-12-18T06:03:38;-8.20;99.90
13682;DHT22;6913;49.892;7.936;2022-12-18T06:06:13;-7.40;99.90
13682;DHT22;6913;49.892;7.936;2022-12-18T06:08:40;-8.20;99.90
13682;DHT22;6913;49.892;7.936;2022-12-18T06:11:07;-8.30;99.90
13682;DHT22;6913;49.892;7.936;2022-12-18T06:13:34;-8.30;99.90
13682;DHT22;6913;49.892;7.936;2022-12-18T06:16:03;-8.30;99.90
13682;DHT22;6913;49.892;7.936;2022-12-18T06:18:30;-8.40;99.90
13682;DHT22;6913;49.892;7.936;2022-12-18T06:20:58;-8.40;99.90
13682;DHT22;6913;49.892;7.936;2022-12-18T06:23:25;-8.40;99.90
13682;DHT22;6913;49.892;7.936;2022-12-18T06:25:52;-8.20;99.90
13682;DHT22;6913;49.892;7.936;2022-12-18T06:28:18;-8.20;99.90
13682;DHT22;6913;49.892;7.936;2022-12-18T06:30:46;-8.20;99.90
13682;DHT22;6913;49.892;7.936;2022-12-18T06:33:15;-8.00;99.90
13682;DHT22;6913;49.892;7.936;2022-12-18T06:35:42;-7.80;99.90
13682;DHT22;6913;49.892;7.936;2022-12-18T06:38:09;-7.70;99.90
13682;DHT22;6913;49.892;7.936;2022-12-18T06:40:37;-7.60;99.90
13682;DHT22;6913;49.892;7.936;2022-12-18T06:43:04;-7.50;99.90
13682;DHT22;6913;49.892;7.936;2022-12-18T06:45:31;-7.80;99.90
13682;DHT22;6913;49.892;7.936;2022-12-18T06:47:58;-7.90;99.90
13682;DHT22;6913;49.892;7.936;2022-12-18T06:50:26;-7.90;99.90
13682;DHT22;6913;49.892;7.936;2022-12-18T06:52:53;-8.00;99.90
13682;DHT22;6913;49.892;7.936;2022-12-18T06:55:20;-7.90;99.90
13682;DHT22;6913;49.892;7.936;2022-12-18T06:57:47;-8.20;99.90
13682;DHT22;6913;49.892;7.936;2022-12-18T07:00:14;-8.20;99.90
13682;DHT22;6913;49.892;7.936;2022-12-18T07:02:41;-8.20;99.90
13682;DHT22;6913;49.892;7.936;2022-12-18T07:05:09;-8.30;99.90
13682;DHT22;6913;49.892;7.936;2022-12-18T07:07:37;-8.20;99.90
13682;DHT22;6913;49.892;7.936;2022-12-18T07:10:05;-8.30;99.90
13682;DHT22;6913;49.892;7.936;2022-12-18T07:12:31;-8.20;99.90
13682;DHT22;6913;49.892;7.936;2022-12-18T07:14:58;-8.60;99.90
13682;DHT22;6913;49.892;7.936;2022-12-18T07:17:25;-8.70;99.90
13682;DHT22;6913;49.892;7.936;2022-12-18T07:19:52;-8.50;99.90
13682;DHT22;6913;49.892;7.936;2022-12-18T07:22:18;-8.60;99.90
13682;DHT22;6913;49.892;7.936;2022-12-18T07:24:49;-8.40;99.90
13682;DHT22;6913;49.892;7.936;2022-12-18T07:27:15;-8.90;99.90
13682;DHT22;6913;49.892;7.936;2022-12-18T07:29:42;-9.10;99.90
13682;DHT22;6913;49.892;7.936;2022-12-18T07:32:09;-8.90;99.90
13682;DHT22;6913;49.892;7.936;2022-12-18T07:34:36;-8.60;99.90
13682;DHT22;6913;49.892;7.936;2022-12-18T07:37:03;-8.50;99.90
13682;DHT22;6913;49.892;7.936;2022-12-18T07:39:30;-8.40;99.90
13682;DHT22;6913;49.892;7.936;2022-12-18T07:41:58;-8.40;99.90
13682;DHT22;6913;49.892;7.936;2022-12-18T07:44:42;-8.40;99.90
13682;DHT22;6913;49.892;7.936;2022-12-18T07:47:09;-8.50;99.90
13682;DHT22;6913;49.892;7.936;2022-12-18T07:49:36;-8.60;99.90
13682;DHT22;6913;49.892;7.936;2022-12-18T07:52:03;-8.70;99.90
13682;DHT22;6913;49.892;7.936;2022-12-18T07:54:30;-7.60;99.90
13682;DHT22;6913;49.892;7.936;2022-12-18T07:56:58;-8.70;99.90
13682;DHT22;6913;49.892;7.936;2022-12-18T07:59:24;-8.70;99.90
13682;DHT22;6913;49.892;7.936;2022-12-18T08:01:51;-8.50;99.90
13682;DHT22;6913;49.892;7.936;2022-12-18T08:04:18;-9.10;99.90
13682;DHT22;6913;49.892;7.936;2022-12-18T08:06:45;-9.30;99.90
13682;DHT22;6913;49.892;7.936;2022-12-18T08:09:12;-9.10;99.90
13682;DHT22;6913;49.892;7.936;2022-12-18T08:11:39;-8.70;99.90
13682;DHT22;6913;49.892;7.936;2022-12-18T08:14:07;-8.50;99.90
13682;DHT22;6913;49.892;7.936;2022-12-18T08:16:34;-8.30;99.90
13682;DHT22;6913;49.892;7.936;2022-12-18T08:19:01;-8.60;99.90
13682;DHT22;6913;49.892;7.936;2022-12-18T08:21:29;-8.40;99.90
13682;DHT22;6913;49.892;7.936;2022-12-18T08:23:58;-8.50;99.90
13682;DHT22;6913;49.892;7.936;2022-12-18T08:26:26;-8.50;99.90
13682;DHT22;6913;49.892;7.936;2022-12-18T08:28:54;-8.70;99.90
13682;DHT22;6913;49.892;7.936;2022-12-18T08:31:24;-8.40;99.90
13682;DHT22;6913;49.892;7.936;2022-12-18T08:33:52;-8.60;99.90
13682;DHT22;6913;49.892;7.936;2022-12-18T08:36:19;-8.50;99.90
13682;DHT22;6913;49.892;7.936;2022-12-18T08:38:47;-8.40;99.90
13682;DHT22;6913;49.892;7.936;2022-12-18T08:41:15;-8.30;99.90
13682;DHT22;6913;49.892;7.936;2022-12-18T08:43:42;-8.10;99.90
13682;DHT22;6913;49.892;7.936;2022-12-18T08:46:32;-8.00;99.90
13682;DHT22;6913;49.892;7.936;2022-12-18T08:49:00;-8.30;99.90
13682;DHT22;6913;49.892;7.936;2022-12-18T08:51:27;-8.20;99.90
13682;DHT22;6913;49.892;7.936;2022-12-18T08:53:53;-9.00;99.90
13682;DHT22;6913;49.892;7.936;2022-12-18T08:56:20;-8.80;99.90
13682;DHT22;6913;49.892;7.936;2022-12-18T08:58:47;-8.70;99.90
13682;DHT22;6913;49.892;7.936;2022-12-18T09:01:14;-8.40;99.90
13682;DHT22;6913;49.892;7.936;2022-12-18T09:03:42;-8.90;99.90
13682;DHT22;6913;49.892;7.936;2022-12-18T09:06:09;-8.70;99.90
13682;DHT22;6913;49.892;7.936;2022-12-18T09:08:39;-8.40;99.90
13682;DHT22;6913;49.892;7.936;2022-12-18T09:11:12;-8.30;99.90
13682;DHT22;6913;49.892;7.936;2022-12-18T09:13:39;-8.10;99.90
13682;DHT22;6913;49.892;7.936;2022-12-18T09:16:06;-7.80;99.90
13682;DHT22;6913;49.892;7.936;2022-12-18T09:18:33;-7.70;99.90
13682;DHT22;6913;49.892;7.936;2022-12-18T09:21:07;-7.60;99.90
13682;DHT22;6913;49.892;7.936;2022-12-18T09:23:34;-8.00;99.90
13682;DHT22;6913;49.892;7.936;2022-12-18T09:26:01;-8.40;99.90
13682;DHT22;6913;49.892;7.936;2022-12-18T09:28:28;-8.50;99.90
13682;DHT22;6913;49.892;7.936;2022-12-18T09:30:55;-8.40;99.90
13682;DHT22;6913;49.892;7.936;2022-12-18T09:33:22;-8.30;99.90
13682;DHT22;6913;49.892;7.936;2022-12-18T09:35:48;-7.90;99.90
13682;DHT22;6913;49.892;7.936;2022-12-18T09:38:18;-7.80;99.90
13682;DHT22;6913;49.892;7.936;2022-12-18T09:40:48;-8.10;99.90
13682;DHT22;6913;49.892;7.936;2022-12-18T09:43:18;-7.70;99.90
13682;DHT22;6913;49.892;7.936;2022-12-18T09:45:49;-7.50;99.90
13682;DHT22;6913;49.892;7.936;2022-12-18T09:48:20;-7.40;99.90
13682;DHT22;6913;49.892;7.936;2022-12-18T09:50:48;-7.30;99.90
13682;DHT22;6913;49.892;7.936;2022-12-18T09:53:21;-7.40;99.90
13682;DHT22;6913;49.892;7.936;2022-12-18T09:55:52;-7.60;99.90
13682;DHT22;6913;49.892;7.936;2022-12-18T09:58:26;-7.50;99.90
13682;DHT22;6913;49.892;7.936;2022-12-18T10:00:55;-7.20;99.90
13682;DHT22;6913;49.892;7.936;2022-12-18T10:03:22;-7.20;99.90
13682;DHT22;6913;49.892;7.936;2022-12-18T10:05:56;-7.20;99.90
13682;DHT22;6913;49.892;7.936;2022-12-18T10:08:37;-7.10;99.90
13682;DHT22;6913;49.892;7.936;2022-12-18T10:11:21;-7.30;99.90
13682;DHT22;6913;49.892;7.936;2022-12-18T10:13:53;-7.30;99.90
13682;DHT22;6913;49.892;7.936;2022-12-18T10:16:27;-7.10;99.90
13682;DHT22;6913;49.892;7.936;2022-12-18T10:19:05;-6.80;99.90
13682;DHT22;6913;49.892;7.936;2022-12-18T10:21:44;-6.60;99.90
13682;DHT22;6913;49.892;7.936;2022-12-18T10:24:20;-6.70;99.90
13682;DHT22;6913;49.892;7.936;2022-12-18T10:26:47;-7.50;99.90
13682;DHT22;6913;49.892;7.936;2022-12-18T10:29:16;-6.10;99.90
13682;DHT22;6913;49.892;7.936;2022-12-18T10:31:43;-7.10;99.90
13682;DHT22;6913;49.892;7.936;2022-12-18T10:34:10;-7.20;99.90
13682;DHT22;6913;49.892;7.936;2022-12-18T10:36:37;-7.00;99.90
13682;DHT22;6913;49.892;7.936;2022-12-18T10:39:19;-6.70;99.90
13682;DHT22;6913;49.892;7.936;2022-12-18T10:41:48;-6.50;99.90
13682;DHT22;6913;49.892;7.936;2022-12-18T10:44:18;-6.80;99.90
13682;DHT22;6913;49.892;7.936;2022-12-18T10:46:46;-6.80;99.90
13682;DHT22;6913;49.892;7.936;2022-12-18T10:49:25;-6.80;99.90
13682;DHT22;6913;49.892;7.936;2022-12-18T10:52:07;-6.50;99.90
13682;DHT22;6913;49.892;7.936;2022-12-18T10:54:38;-6.30;99.90
13682;DHT22;6913;49.892;7.936;2022-12-18T10:57:16;-6.50;99.90
13682;DHT22;6913;49.892;7.936;2022-12-18T10:59:52;-6.20;99.90
13682;DHT22;6913;49.892;7.936;2022-12-18T11:02:28;-6.30;99.90
13682;DHT22;6913;49.892;7.936;2022-12-18T11:04:59;-6.10;99.90
13682;DHT22;6913;49.892;7.936;2022-12-18T11:07:47;-6.60;99.90
13682;DHT22;6913;49.892;7.936;2022-12-18T11:10:17;-6.40;99.90
13682;DHT22;6913;49.892;7.936;2022-12-18T11:12:44;-6.30;99.90
13682;DHT22;6913;49.892;7.936;2022-12-18T11:15:18;-6.40;99.90
13682;DHT22;6913;49.892;7.936;2022-12-18T11:17:48;-6.70;99.90
13682;DHT22;6913;49.892;7.936;2022-12-18T11:20:23;-7.10;99.90
13682;DHT22;6913;49.892;7.936;2022-12-18T11:22:56;-6.70;99.90
13682;DHT22;6913;49.892;7.936;2022-12-18T11:25:28;-6.30;99.90
13682;DHT22;6913;49.892;7.936;2022-12-18T11:27:56;-6.20;99.90
13682;DHT22;6913;49.892;7.936;2022-12-18T11:30:26;-6.00;99.90
13682;DHT22;6913;49.892;7.936;2022-12-18T11:32:56;-6.40;99.90
13682;DHT22;6913;49.892;7.936;2022-12-18T11:35:34;-6.80;99.90
13682;DHT22;6913;49.892;7.936;2022-12-18T11:38:10;-6.90;99.90
13682;DHT22;6913;49.892;7.936;2022-12-18T11:40:42;-6.90;99.90
13682;DHT22;6913;49.892;7.936;2022-12-18T11:43:14;-6.80;99.90
13682;DHT22;6913;49.892;7.936;2022-12-18T11:45:48;-6.90;99.90
13682;DHT22;6913;49.892;7.936;2022-12-18T11:48:18;-7.20;99.90
13682;DHT22;6913;49.892;7.936;2022-12-18T11:50:50;-6.80;99.90
13682;DHT22;6913;49.892;7.936;2022-12-18T11:53:17;-6.20;99.90
13682;DHT22;6913;49.892;7.936;2022-12-18T11:55:52;-6.30;99.90
13682;DHT22;6913;49.892;7.936;2022-12-18T11:58:29;-6.30;99.90
13682;DHT22;6913;49.892;7.936;2022-12-18T12:01:07;-6.30;99.90
13682;DHT22;6913;49.892;7.936;2022-12-18T12:04:01;-6.30;99.90
13682;DHT22;6913;49.892;7.936;2022-12-18T12:06:36;-5.80;99.90
13682;DHT22;6913;49.892;7.936;2022-12-18T12:09:13;-5.50;99.90
13682;DHT22;6913;49.892;7.936;2022-12-18T12:11:51;-5.10;99.90
13682;DHT22;6913;49.892;7.936;2022-12-18T12:14:35;-4.80;99.90
13682;DHT22;6913;49.892;7.936;2022-12-18T12:17:11;-4.50;99.90
13682;DHT22;6913;49.892;7.936;2022-12-18T12:19:45;-4.40;99.90
13682;DHT22;6913;49.892;7.936;2022-12-18T12:22:21;-4.30;99.90
13682;DHT22;6913;49.892;7.936;2022-12-18T12:24:59;-4.20;99.90
13682;DHT22;6913;49.892;7.936;2022-12-18T12:27:37;-4.10;99.90
13682;DHT22;6913;49.892;7.936;2022-12-18T12:30:10;-3.90;99.90
13682;DHT22;6913;49.892;7.936;2022-12-18T12:32:49;-3.80;99.90
13682;DHT22;6913;49.892;7.936;2022-12-18T12:35:37;-3.60;99.90
13682;DHT22;6913;49.892;7.936;2022-12-18T12:38:09;-3.50;99.90
13682;DHT22;6913;49.892;7.936;2022-12-18T12:40:40;-3.50;99.90
13682;DHT22;6913;49.892;7.936;2022-12-18T12:43:20;-3.40;99.90
13682;DHT22;6913;49.892;7.936;2022-12-18T12:45:50;-3.40;99.90
13682;DHT22;6913;49.892;7.936;2022-12-18T12:48:27;-3.40;99.90
13682;DHT22;6913;49.892;7.936;2022-12-18T12:50:59;-3.30;99.90
13682;DHT22;6913;49.892;7.936;2022-12-18T12:53:31;-3.20;99.90
13682;DHT22;6913;49.892;7.936;2022-12-18T12:55:59;-3.10;99.90
13682;DHT22;6913;49.892;7.936;2022-12-18T12:58:36;-3.30;99.90
13682;DHT22;6913;49.892;7.936;2022-12-18T13:01:13;-3.20;99.90
13682;DHT22;6913;49.892;7.936;2022-12-18T13:03:47;-3.40;99.90
13682;DHT22;6913;49.892;7.936;2022-12-18T13:06:22;-3.60;99.90
13682;DHT22;6913;49.892;7.936;2022-12-18T13:08:54;-3.90;99.90
13682;DHT22;6913;49.892;7.936;2022-12-18T13:11:34;-3.70;99.90
13682;DHT22;6913;49.892;7.936;2022-12-18T13:14:27;-4.40;99.90
13682;DHT22;6913;49.892;7.936;2022-12-18T13:17:24;-4.50;99.90
13682;DHT22;6913;49.892;7.936;2022-12-18T13:20:04;-4.60;99.90
13682;DHT22;6913;49.892;7.936;2022-12-18T13:22:35;-4.60;99.90
13682;DHT22;6913;49.892;7.936;2022-12-18T13:25:02;-4.60;99.90
13682;DHT22;6913;49.892;7.936;2022-12-18T13:28:00;-4.60;99.90
13682;DHT22;6913;49.892;7.936;2022-12-18T13:30:44;-4.60;99.90
13682;DHT22;6913;49.892;7.936;2022-12-18T13:33:37;-4.60;99.90
13682;DHT22;6913;49.892;7.936;2022-12-18T13:36:13;-4.50;99.90
13682;DHT22;6913;49.892;7.936;2022-12-18T13:38:41;-4.50;99.90
13682;DHT22;6913;49.892;7.936;2022-12-18T13:41:23;-4.50;99.90
13682;DHT22;6913;49.892;7.936;2022-12-18T13:43:51;-4.60;99.90
13682;DHT22;6913;49.892;7.936;2022-12-18T13:46:23;-4.40;99.90
13682;DHT22;6913;49.892;7.936;2022-12-18T13:48:55;-4.50;99.90
13682;DHT22;6913;49.892;7.936;2022-12-18T13:51:22;-4.70;99.90
13682;DHT22;6913;49.892;7.936;2022-12-18T13:53:52;-4.70;99.90
13682;DHT22;6913;49.892;7.936;2022-12-18T13:56:23;-4.70;99.90
13682;DHT22;6913;49.892;7.936;2022-12-18T13:59:15;-4.70;99.90
13682;DHT22;6913;49.892;7.936;2022-12-18T14:01:45;-4.80;99.90
13682;DHT22;6913;49.892;7.936;2022-12-18T14:04:20;-4.70;99.90
13682;DHT22;6913;49.892;7.936;2022-12-18T14:06:47;-4.80;99.90
13682;DHT22;6913;49.892;7.936;2022-12-18T14:09:15;-4.70;99.90
13682;DHT22;6913;49.892;7.936;2022-12-18T14:11:48;-4.70;99.90
13682;DHT22;6913;49.892;7.936;2022-12-18T14:14:16;-4.80;99.90
13682;DHT22;6913;49.892;7.936;2022-12-18T14:16:46;-4.80;99.90
13682;DHT22;6913;49.892;7.936;2022-12-18T14:19:15;-4.90;99.90
13682;DHT22;6913;49.892;7.936;2022-12-18T14:21:46;-4.80;99.90
13682;DHT22;6913;49.892;7.936;2022-12-18T14:24:15;-4.80;99.90
13682;DHT22;6913;49.892;7.936;2022-12-18T14:26:43;-4.80;99.90
13682;DHT22;6913;49.892;7.936;2022-12-18T14:29:25;-4.80;99.90
13682;DHT22;6913;49.892;7.936;2022-12-18T14:32:07;-4.80;99.90
13682;DHT22;6913;49.892;7.936;2022-12-18T14:34:36;-4.80;99.90
13682;DHT22;6913;49.892;7.936;2022-12-18T14:37:03;-4.80;99.90
13682;DHT22;6913;49.892;7.936;2022-12-18T14:39:30;-4.80;99.90
13682;DHT22;6913;49.892;7.936;2022-12-18T14:41:56;-4.80;99.90
13682;DHT22;6913;49.892;7.936;2022-12-18T14:44:23;-4.80;99.90
13682;DHT22;6913;49.892;7.936;2022-12-18T14:46:50;-4.90;99.90
13682;DHT22;6913;49.892;7.936;2022-12-18T14:49:23;-4.80;99.90
13682;DHT22;6913;49.892;7.936;2022-12-18T14:51:53;-4.80;99.90
13682;DHT22;6913;49.892;7.936;2022-12-18T14:54:21;-4.90;99.90
13682;DHT22;6913;49.892;7.936;2022-12-18T14:56:50;-4.80;99.90
13682;DHT22;6913;49.892;7.936;2022-12-18T14:59:20;-4.80;99.90
13682;DHT22;6913;49.892;7.936;2022-12-18T15:01:55;-4.80;99.90
13682;DHT22;6913;49.892;7.936;2022-12-18T15:04:27;-4.80;99.90
13682;DHT22;6913;49.892;7.936;2022-12-18T15:07:13;-4.80;99.90
13682;DHT22;6913;49.892;7.936;2022-12-18T15:09:41;-4.70;99.90
13682;DHT22;6913;49.892;7.936;2022-12-18T15:12:23;-4.70;99.90
13682;DHT22;6913;49.892;7.936;2022-12-18T15:14:51;-4.80;99.90
13682;DHT22;6913;49.892;7.936;2022-12-18T15:17:20;-4.80;99.90
13682;DHT22;6913;49.892;7.936;2022-12-18T15:19:51;-4.90;99.90
13682;DHT22;6913;49.892;7.936;2022-12-18T15:22:25;-4.90;99.90
13682;DHT22;6913;49.892;7.936;2022-12-18T15:24:53;-4.90;99.90
13682;DHT22;6913;49.892;7.936;2022-12-18T15:27:27;-4.90;99.90
13682;DHT22;6913;49.892;7.936;2022-12-18T15:30:17;-4.90;99.90
13682;DHT22;6913;49.892;7.936;2022-12-18T15:32:44;-4.80;99.90
13682;DHT22;6913;49.892;7.936;2022-12-18T15:35:17;-4.80;99.90
13682;DHT22;6913;49.892;7.936;2022-12-18T15:37:44;-4.80;99.90
13682;DHT22;6913;49.892;7.936;2022-12-18T15:40:15;-4.80;99.90
13682;DHT22;6913;49.892;7.936;2022-12-18T15:42:43;-4.80;99.90
13682;DHT22;6913;49.892;7.936;2022-12-18T15:45:28;-4.80;99.90
13682;DHT22;6913;49.892;7.936;2022-12-18T15:47:54;-4.80;99.90
13682;DHT22;6913;49.892;7.936;2022-12-18T15:50:23;-4.80;99.90
13682;DHT22;6913;49.892;7.936;2022-12-18T15:52:51;-4.70;99.90
13682;DHT22;6913;49.892;7.936;2022-12-18T15:55:20;-4.70;99.90
13682;DHT22;6913;49.892;7.936;2022-12-18T15:58:06;-4.70;99.90
13682;DHT22;6913;49.892;7.936;2022-12-18T16:00:34;-4.70;99.90
13682;DHT22;6913;49.892;7.936;2022-12-18T16:03:02;-4.70;99.90
13682;DHT22;6913;49.892;7.936;2022-12-18T16:05:31;-4.70;99.90
13682;DHT22;6913;49.892;7.936;2022-12-18T16:07:58;-4.70;99.90